sensor_id;sensor_type;location;lat;lon;timestamp;P1;durP1;ratioP1;P2;durP2;ratioP2
16304;SDS011;8261;47.678;-122.174;2022-07-03T00:02:45;6.60;;;5.63;;
16304;SDS011;8261;47.678;-122.174;2022-07-03T00:05:51;7.73;;;5.33;;
16304;SDS011;8261;47.678;-122.174;2022-07-03T00:08:49;7.10;;;5.07;;
16304;SDS011;8261;47.678;-122.174;2022-07-03T00:11:34;6.10;;;5.03;;
16304;SDS011;8261;47.678;-122.174;2022-07-03T00:14:13;5.63;;;5.13;;
16304;SDS011;8261;47.678;-122.174;2022-07-03T00:16:47;5.43;;;4.93;;
16304;SDS011;8261;47.678;-122.174;2022-07-03T00:19:20;5.53;;;5.03;;
16304;SDS011;8261;47.678;-122.174;2022-07-03T00:21:52;6.47;;;4.97;;
16304;SDS011;8261;47.678;-122.174;2022-07-03T00:24:40;6.10;;;5.50;;
16304;SDS011;8261;47.678;-122.174;2022-07-03T00:27:14;5.40;;;4.90;;
16304;SDS011;8261;47.678;-122.174;2022-07-03T00:29:50;5.43;;;4.93;;
16304;SDS011;8261;47.678;-122.174;2022-07-03T00:32:26;5.43;;;4.90;;
16304;SDS011;8261;47.678;-122.174;2022-07-03T00:35:06;4.83;;;4.37;;
16304;SDS011;8261;47.678;-122.174;2022-07-03T00:37:48;9.40;;;4.97;;
16304;SDS011;8261;47.678;-122.174;2022-07-03T00:40:21;6.27;;;4.13;;
16304;SDS011;8261;47.678;-122.174;2022-07-03T00:42:59;6.57;;;4.53;;
16304;SDS011;8261;47.678;-122.174;2022-07-03T00:45:34;5.17;;;4.67;;
16304;SDS011;8261;47.678;-122.174;2022-07-03T00:48:12;5.40;;;4.90;;
16304;SDS011;8261;47.678;-122.174;2022-07-03T00:50:45;4.93;;;4.53;;
16304;SDS011;8261;47.678;-122.174;2022-07-03T00:53:23;5.13;;;4.63;;
16304;SDS011;8261;47.678;-122.174;2022-07-03T00:55:59;4.93;;;4.43;;
16304;SDS011;8261;47.678;-122.174;2022-07-03T00:58:34;4.60;;;4.20;;
16304;SDS011;8261;47.678;-122.174;2022-07-03T01:01:28;5.37;;;4.20;;
16304;SDS011;8261;47.678;-122.174;2022-07-03T01:04:21;5.00;;;4.53;;
16304;SDS011;8261;47.678;-122.174;2022-07-03T01:07:00;4.97;;;4.47;;
16304;SDS011;8261;47.678;-122.174;2022-07-03T01:09:41;5.20;;;4.40;;
16304;SDS011;8261;47.678;-122.174;2022-07-03T01:12:23;4.70;;;4.30;;
16304;SDS011;8261;47.678;-122.174;2022-07-03T01:15:03;4.20;;;3.80;;
16304;SDS011;8261;47.678;-122.174;2022-07-03T01:17:44;4.40;;;4.00;;
16304;SDS011;8261;47.678;-122.174;2022-07-03T01:20:40;5.47;;;4.37;;
16304;SDS011;8261;47.678;-122.174;2022-07-03T01:23:23;5.03;;;4.20;;
16304;SDS011;8261;47.678;-122.174;2022-07-03T01:26:05;4.30;;;3.90;;
16304;SDS011;8261;47.678;-122.174;2022-07-03T01:28:40;4.30;;;3.90;;
16304;SDS011;8261;47.678;-122.174;2022-07-03T01:31:17;5.30;;;4.23;;
16304;SDS011;8261;47.678;-122.174;2022-07-03T01:33:54;5.23;;;3.93;;
16304;SDS011;8261;47.678;-122.174;2022-07-03T01:36:26;5.93;;;4.43;;
16304;SDS011;8261;47.678;-122.174;2022-07-03T01:39:02;4.47;;;4.07;;
16304;SDS011;8261;47.678;-122.174;2022-07-03T01:41:43;4.33;;;3.77;;
16304;SDS011;8261;47.678;-122.174;2022-07-03T01:44:17;4.97;;;3.90;;
16304;SDS011;8261;47.678;-122.174;2022-07-03T01:46:56;4.77;;;4.30;;
16304;SDS011;8261;47.678;-122.174;2022-07-03T01:49:28;5.27;;;3.60;;
16304;SDS011;8261;47.678;-122.174;2022-07-03T01:52:06;4.47;;;4.07;;
16304;SDS011;8261;47.678;-122.174;2022-07-03T01:54:59;5.20;;;4.20;;
16304;SDS011;8261;47.678;-122.174;2022-07-03T01:57:37;4.20;;;3.90;;
16304;SDS011;8261;47.678;-122.174;2022-07-03T02:00:17;4.10;;;3.70;;
16304;SDS011;8261;47.678;-122.174;2022-07-03T02:02:54;4.00;;;3.53;;
16304;SDS011;8261;47.678;-122.174;2022-07-03T02:05:29;4.07;;;3.70;;
16304;SDS011;8261;47.678;-122.174;2022-07-03T02:08:08;5.13;;;3.80;;
16304;SDS011;8261;47.678;-122.174;2022-07-03T02:10:51;5.30;;;4.33;;
16304;SDS011;8261;47.678;-122.174;2022-07-03T02:13:37;4.13;;;3.83;;
16304;SDS011;8261;47.678;-122.174;2022-07-03T02:16:16;5.07;;;4.07;;
16304;SDS011;8261;47.678;-122.174;2022-07-03T02:18:55;4.50;;;4.10;;
16304;SDS011;8261;47.678;-122.174;2022-07-03T02:21:30;4.00;;;3.60;;
16304;SDS011;8261;47.678;-122.174;2022-07-03T02:24:11;3.93;;;3.63;;
16304;SDS011;8261;47.678;-122.174;2022-07-03T02:26:53;4.43;;;4.10;;
16304;SDS011;8261;47.678;-122.174;2022-07-03T02:29:46;4.03;;;3.73;;
16304;SDS011;8261;47.678;-122.174;2022-07-03T02:32:24;4.17;;;3.77;;
16304;SDS011;8261;47.678;-122.174;2022-07-03T02:35:03;4.00;;;3.70;;
16304;SDS011;8261;47.678;-122.174;2022-07-03T02:37:53;4.63;;;4.10;;
16304;SDS011;8261;47.678;-122.174;2022-07-03T02:40:36;4.17;;;3.77;;
16304;SDS011;8261;47.678;-122.174;2022-07-03T02:43:12;4.27;;;3.80;;
16304;SDS011;8261;47.678;-122.174;2022-07-03T02:49:11;4.47;;;4.07;;
16304;SDS011;8261;47.678;-122.174;2022-07-03T02:52:01;4.30;;;4.00;;
16304;SDS011;8261;47.678;-122.174;2022-07-03T02:54:44;4.93;;;3.87;;
16304;SDS011;8261;47.678;-122.174;2022-07-03T02:57:37;4.00;;;3.70;;
16304;SDS011;8261;47.678;-122.174;2022-07-03T03:00:18;4.00;;;3.70;;
16304;SDS011;8261;47.678;-122.174;2022-07-03T03:03:05;4.23;;;3.83;;
16304;SDS011;8261;47.678;-122.174;2022-07-03T03:08:22;6.83;;;4.20;;
16304;SDS011;8261;47.678;-122.174;2022-07-03T03:11:27;4.60;;;4.20;;
16304;SDS011;8261;47.678;-122.174;2022-07-03T03:14:07;4.60;;;4.03;;
16304;SDS011;8261;47.678;-122.174;2022-07-03T03:16:44;3.90;;;3.60;;
16304;SDS011;8261;47.678;-122.174;2022-07-03T03:19:21;4.80;;;3.83;;
16304;SDS011;8261;47.678;-122.174;2022-07-03T03:21:56;4.10;;;3.70;;
16304;SDS011;8261;47.678;-122.174;2022-07-03T03:24:33;4.60;;;3.73;;
16304;SDS011;8261;47.678;-122.174;2022-07-03T03:27:08;3.93;;;3.53;;
16304;SDS011;8261;47.678;-122.174;2022-07-03T03:29:40;3.87;;;3.57;;
16304;SDS011;8261;47.678;-122.174;2022-07-03T03:32:32;4.60;;;4.17;;
16304;SDS011;8261;47.678;-122.174;2022-07-03T03:35:29;4.70;;;4.30;;
16304;SDS011;8261;47.678;-122.174;2022-07-03T03:38:29;4.20;;;3.80;;
16304;SDS011;8261;47.678;-122.174;2022-07-03T03:41:16;5.63;;;3.70;;
16304;SDS011;8261;47.678;-122.174;2022-07-03T03:44:14;4.40;;;4.00;;
16304;SDS011;8261;47.678;-122.174;2022-07-03T03:46:51;4.67;;;3.67;;
16304;SDS011;8261;47.678;-122.174;2022-07-03T04:03:39;3.93;;;3.60;;
16304;SDS011;8261;47.678;-122.174;2022-07-03T04:06:29;4.40;;;4.00;;
16304;SDS011;8261;47.678;-122.174;2022-07-03T04:09:26;4.43;;;4.03;;
16304;SDS011;8261;47.678;-122.174;2022-07-03T04:12:16;6.60;;;3.80;;
16304;SDS011;8261;47.678;-122.174;2022-07-03T04:14:57;4.50;;;4.10;;
16304;SDS011;8261;47.678;-122.174;2022-07-03T04:17:45;4.37;;;3.63;;
16304;SDS011;8261;47.678;-122.174;2022-07-03T04:23:36;4.50;;;4.10;;
16304;SDS011;8261;47.678;-122.174;2022-07-03T04:26:10;4.67;;;4.27;;
16304;SDS011;8261;47.678;-122.174;2022-07-03T04:28:43;4.30;;;3.83;;
16304;SDS011;8261;47.678;-122.174;2022-07-03T04:31:15;4.10;;;3.70;;
16304;SDS011;8261;47.678;-122.174;2022-07-03T04:33:51;5.33;;;4.40;;
16304;SDS011;8261;47.678;-122.174;2022-07-03T04:36:28;4.57;;;4.17;;
16304;SDS011;8261;47.678;-122.174;2022-07-03T04:39:01;5.90;;;4.10;;
16304;SDS011;8261;47.678;-122.174;2022-07-03T04:41:45;5.80;;;4.10;;
16304;SDS011;8261;47.678;-122.174;2022-07-03T04:44:18;4.83;;;4.43;;
16304;SDS011;8261;47.678;-122.174;2022-07-03T04:46:50;5.07;;;4.57;;
16304;SDS011;8261;47.678;-122.174;2022-07-03T04:49:27;4.97;;;4.47;;
16304;SDS011;8261;47.678;-122.174;2022-07-03T04:52:04;4.73;;;4.33;;
16304;SDS011;8261;47.678;-122.174;2022-07-03T04:54:38;6.50;;;4.00;;
16304;SDS011;8261;47.678;-122.174;2022-07-03T04:57:25;4.47;;;4.07;;
16304;SDS011;8261;47.678;-122.174;2022-07-03T05:00:22;6.70;;;4.40;;
16304;SDS011;8261;47.678;-122.174;2022-07-03T05:03:09;5.33;;;4.43;;
16304;SDS011;8261;47.678;-122.174;2022-07-03T05:05:57;4.60;;;4.20;;
16304;SDS011;8261;47.678;-122.174;2022-07-03T05:08:54;5.73;;;4.20;;
16304;SDS011;8261;47.678;-122.174;2022-07-03T05:11:27;4.93;;;4.40;;
16304;SDS011;8261;47.678;-122.174;2022-07-03T05:14:01;4.10;;;3.80;;
16304;SDS011;8261;47.678;-122.174;2022-07-03T05:16:37;5.17;;;4.33;;
16304;SDS011;8261;47.678;-122.174;2022-07-03T05:19:37;4.67;;;4.27;;
16304;SDS011;8261;47.678;-122.174;2022-07-03T05:22:11;4.63;;;4.23;;
16304;SDS011;8261;47.678;-122.174;2022-07-03T05:24:49;4.93;;;4.37;;
16304;SDS011;8261;47.678;-122.174;2022-07-03T05:27:24;5.07;;;4.67;;
16304;SDS011;8261;47.678;-122.174;2022-07-03T05:29:57;4.90;;;4.43;;
16304;SDS011;8261;47.678;-122.174;2022-07-03T05:32:28;5.20;;;4.70;;
16304;SDS011;8261;47.678;-122.174;2022-07-03T05:35:01;5.77;;;3.97;;
16304;SDS011;8261;47.678;-122.174;2022-07-03T05:37:32;5.33;;;4.50;;
16304;SDS011;8261;47.678;-122.174;2022-07-03T05:40:14;5.00;;;4.50;;
16304;SDS011;8261;47.678;-122.174;2022-07-03T05:42:48;5.00;;;4.50;;
16304;SDS011;8261;47.678;-122.174;2022-07-03T05:45:34;4.43;;;3.77;;
16304;SDS011;8261;47.678;-122.174;2022-07-03T05:48:05;4.70;;;4.30;;
16304;SDS011;8261;47.678;-122.174;2022-07-03T05:50:36;4.57;;;4.17;;
16304;SDS011;8261;47.678;-122.174;2022-07-03T05:53:10;5.00;;;4.40;;
16304;SDS011;8261;47.678;-122.174;2022-07-03T05:55:46;3.97;;;3.53;;
16304;SDS011;8261;47.678;-122.174;2022-07-03T05:58:22;4.50;;;3.90;;
16304;SDS011;8261;47.678;-122.174;2022-07-03T06:00:56;4.00;;;3.60;;
16304;SDS011;8261;47.678;-122.174;2022-07-03T06:03:35;4.57;;;4.17;;
16304;SDS011;8261;47.678;-122.174;2022-07-03T06:06:20;4.07;;;3.50;;
16304;SDS011;8261;47.678;-122.174;2022-07-03T06:08:52;4.37;;;3.97;;
16304;SDS011;8261;47.678;-122.174;2022-07-03T06:11:29;4.97;;;3.93;;
16304;SDS011;8261;47.678;-122.174;2022-07-03T06:14:02;7.47;;;3.73;;
16304;SDS011;8261;47.678;-122.174;2022-07-03T06:16:38;6.70;;;3.93;;
16304;SDS011;8261;47.678;-122.174;2022-07-03T06:19:12;7.37;;;3.43;;
16304;SDS011;8261;47.678;-122.174;2022-07-03T06:21:44;4.13;;;3.70;;
16304;SDS011;8261;47.678;-122.174;2022-07-03T06:24:36;4.10;;;3.60;;
16304;SDS011;8261;47.678;-122.174;2022-07-03T06:27:36;5.50;;;3.43;;
16304;SDS011;8261;47.678;-122.174;2022-07-03T06:30:18;4.70;;;3.53;;
16304;SDS011;8261;47.678;-122.174;2022-07-03T06:32:53;4.50;;;3.70;;
16304;SDS011;8261;47.678;-122.174;2022-07-03T06:35:27;5.43;;;3.43;;
16304;SDS011;8261;47.678;-122.174;2022-07-03T06:38:13;3.87;;;3.13;;
16304;SDS011;8261;47.678;-122.174;2022-07-03T06:41:13;4.37;;;3.60;;
16304;SDS011;8261;47.678;-122.174;2022-07-03T06:43:53;4.00;;;3.30;;
16304;SDS011;8261;47.678;-122.174;2022-07-03T06:46:26;5.87;;;3.70;;
16304;SDS011;8261;47.678;-122.174;2022-07-03T06:49:27;4.40;;;3.70;;
16304;SDS011;8261;47.678;-122.174;2022-07-03T06:52:03;4.30;;;3.53;;
16304;SDS011;8261;47.678;-122.174;2022-07-03T06:54:37;5.37;;;4.00;;
16304;SDS011;8261;47.678;-122.174;2022-07-03T06:57:13;3.80;;;3.10;;
16304;SDS011;8261;47.678;-122.174;2022-07-03T07:00:02;5.10;;;3.83;;
16304;SDS011;8261;47.678;-122.174;2022-07-03T07:02:36;4.43;;;4.03;;
16304;SDS011;8261;47.678;-122.174;2022-07-03T07:05:25;4.17;;;3.43;;
16304;SDS011;8261;47.678;-122.174;2022-07-03T07:08:42;3.93;;;3.60;;
16304;SDS011;8261;47.678;-122.174;2022-07-03T07:11:40;4.07;;;3.20;;
16304;SDS011;8261;47.678;-122.174;2022-07-03T07:14:44;4.80;;;3.90;;
16304;SDS011;8261;47.678;-122.174;2022-07-03T07:18:13;4.10;;;3.70;;
16304;SDS011;8261;47.678;-122.174;2022-07-03T07:21:17;4.07;;;3.70;;
16304;SDS011;8261;47.678;-122.174;2022-07-03T07:24:28;4.03;;;3.57;;
16304;SDS011;8261;47.678;-122.174;2022-07-03T07:27:12;4.90;;;3.30;;
16304;SDS011;8261;47.678;-122.174;2022-07-03T07:30:34;7.03;;;3.87;;
16304;SDS011;8261;47.678;-122.174;2022-07-03T07:33:38;4.00;;;3.60;;
16304;SDS011;8261;47.678;-122.174;2022-07-03T07:36:36;4.83;;;3.47;;
16304;SDS011;8261;47.678;-122.174;2022-07-03T07:39:29;4.83;;;3.77;;
16304;SDS011;8261;47.678;-122.174;2022-07-03T07:42:05;4.87;;;3.60;;
16304;SDS011;8261;47.678;-122.174;2022-07-03T07:44:39;5.27;;;3.77;;
16304;SDS011;8261;47.678;-122.174;2022-07-03T07:47:14;3.67;;;3.27;;
16304;SDS011;8261;47.678;-122.174;2022-07-03T07:49:48;4.83;;;3.73;;
16304;SDS011;8261;47.678;-122.174;2022-07-03T07:52:20;4.33;;;3.80;;
16304;SDS011;8261;47.678;-122.174;2022-07-03T07:55:00;4.07;;;3.70;;
16304;SDS011;8261;47.678;-122.174;2022-07-03T07:57:34;4.13;;;3.77;;
16304;SDS011;8261;47.678;-122.174;2022-07-03T08:00:07;5.30;;;4.13;;
16304;SDS011;8261;47.678;-122.174;2022-07-03T08:02:44;5.10;;;4.03;;
16304;SDS011;8261;47.678;-122.174;2022-07-03T08:05:35;7.73;;;3.60;;
16304;SDS011;8261;47.678;-122.174;2022-07-03T08:08:08;4.87;;;4.20;;
16304;SDS011;8261;47.678;-122.174;2022-07-03T08:10:46;4.07;;;3.60;;
16304;SDS011;8261;47.678;-122.174;2022-07-03T08:13:36;6.03;;;3.80;;
16304;SDS011;8261;47.678;-122.174;2022-07-03T08:16:09;4.80;;;4.30;;
16304;SDS011;8261;47.678;-122.174;2022-07-03T08:18:47;4.47;;;3.43;;
16304;SDS011;8261;47.678;-122.174;2022-07-03T08:21:27;4.57;;;4.17;;
16304;SDS011;8261;47.678;-122.174;2022-07-03T08:24:14;5.13;;;3.97;;
16304;SDS011;8261;47.678;-122.174;2022-07-03T08:27:11;4.70;;;4.13;;
16304;SDS011;8261;47.678;-122.174;2022-07-03T08:29:47;7.57;;;4.80;;
16304;SDS011;8261;47.678;-122.174;2022-07-03T08:32:22;5.23;;;4.23;;
16304;SDS011;8261;47.678;-122.174;2022-07-03T08:34:55;6.20;;;4.60;;
16304;SDS011;8261;47.678;-122.174;2022-07-03T08:37:34;5.27;;;4.77;;
16304;SDS011;8261;47.678;-122.174;2022-07-03T08:40:08;5.00;;;4.50;;
16304;SDS011;8261;47.678;-122.174;2022-07-03T08:42:42;5.47;;;4.67;;
16304;SDS011;8261;47.678;-122.174;2022-07-03T08:45:17;5.33;;;4.83;;
16304;SDS011;8261;47.678;-122.174;2022-07-03T08:47:52;5.83;;;4.40;;
16304;SDS011;8261;47.678;-122.174;2022-07-03T08:53:05;6.20;;;4.10;;
16304;SDS011;8261;47.678;-122.174;2022-07-03T08:55:56;4.63;;;4.23;;
16304;SDS011;8261;47.678;-122.174;2022-07-03T08:58:50;4.23;;;3.83;;
16304;SDS011;8261;47.678;-122.174;2022-07-03T09:06:51;5.27;;;4.20;;
16304;SDS011;8261;47.678;-122.174;2022-07-03T09:09:29;4.73;;;3.80;;
16304;SDS011;8261;47.678;-122.174;2022-07-03T09:12:23;5.93;;;4.60;;
16304;SDS011;8261;47.678;-122.174;2022-07-03T09:15:34;4.43;;;4.03;;
16304;SDS011;8261;47.678;-122.174;2022-07-03T09:18:41;5.07;;;4.13;;
16304;SDS011;8261;47.678;-122.174;2022-07-03T09:21:36;5.87;;;4.20;;
16304;SDS011;8261;47.678;-122.174;2022-07-03T09:33:36;5.33;;;4.20;;
16304;SDS011;8261;47.678;-122.174;2022-07-03T09:41:55;5.13;;;4.03;;
16304;SDS011;8261;47.678;-122.174;2022-07-03T09:44:36;6.20;;;3.83;;
16304;SDS011;8261;47.678;-122.174;2022-07-03T09:47:30;5.97;;;4.13;;
16304;SDS011;8261;47.678;-122.174;2022-07-03T09:50:12;5.03;;;4.27;;
16304;SDS011;8261;47.678;-122.174;2022-07-03T09:58:08;3.70;;;3.27;;
16304;SDS011;8261;47.678;-122.174;2022-07-03T10:01:15;5.97;;;3.83;;
16304;SDS011;8261;47.678;-122.174;2022-07-03T11:18:12;4.50;;;3.93;;
16304;SDS011;8261;47.678;-122.174;2022-07-03T11:24:02;6.33;;;3.67;;
16304;SDS011;8261;47.678;-122.174;2022-07-03T11:26:43;5.27;;;4.07;;
16304;SDS011;8261;47.678;-122.174;2022-07-03T11:29:27;5.67;;;3.87;;
16304;SDS011;8261;47.678;-122.174;2022-07-03T11:32:10;5.70;;;4.10;;
16304;SDS011;8261;47.678;-122.174;2022-07-03T11:35:46;4.10;;;3.70;;
16304;SDS011;8261;47.678;-122.174;2022-07-03T11:38:23;5.13;;;3.90;;
16304;SDS011;8261;47.678;-122.174;2022-07-03T11:40:58;6.13;;;3.50;;
16304;SDS011;8261;47.678;-122.174;2022-07-03T11:43:30;4.23;;;3.80;;
16304;SDS011;8261;47.678;-122.174;2022-07-03T11:46:06;5.23;;;3.87;;
16304;SDS011;8261;47.678;-122.174;2022-07-03T11:48:41;4.13;;;3.73;;
16304;SDS011;8261;47.678;-122.174;2022-07-03T11:51:18;4.37;;;3.97;;
16304;SDS011;8261;47.678;-122.174;2022-07-03T11:53:53;5.43;;;3.23;;
16304;SDS011;8261;47.678;-122.174;2022-07-03T11:56:25;4.50;;;3.97;;
16304;SDS011;8261;47.678;-122.174;2022-07-03T11:58:58;4.23;;;3.83;;
16304;SDS011;8261;47.678;-122.174;2022-07-03T12:01:49;4.23;;;3.83;;
16304;SDS011;8261;47.678;-122.174;2022-07-03T12:04:20;4.67;;;3.77;;
16304;SDS011;8261;47.678;-122.174;2022-07-03T12:06:59;4.53;;;4.13;;
16304;SDS011;8261;47.678;-122.174;2022-07-03T12:09:32;4.37;;;3.97;;
16304;SDS011;8261;47.678;-122.174;2022-07-03T12:12:15;5.30;;;4.13;;
16304;SDS011;8261;47.678;-122.174;2022-07-03T12:14:46;4.97;;;4.07;;
16304;SDS011;8261;47.678;-122.174;2022-07-03T12:17:22;6.13;;;4.00;;
16304;SDS011;8261;47.678;-122.174;2022-07-03T12:19:54;4.63;;;4.17;;
16304;SDS011;8261;47.678;-122.174;2022-07-03T12:22:31;5.50;;;3.87;;
16304;SDS011;8261;47.678;-122.174;2022-07-03T12:25:04;7.00;;;4.77;;
16304;SDS011;8261;47.678;-122.174;2022-07-03T12:27:38;4.90;;;4.17;;
16304;SDS011;8261;47.678;-122.174;2022-07-03T12:30:13;6.90;;;4.40;;
16304;SDS011;8261;47.678;-122.174;2022-07-03T12:32:54;6.63;;;4.60;;
16304;SDS011;8261;47.678;-122.174;2022-07-03T12:35:27;6.33;;;5.30;;
16304;SDS011;8261;47.678;-122.174;2022-07-03T12:38:04;6.37;;;5.70;;
16304;SDS011;8261;47.678;-122.174;2022-07-03T12:40:40;6.57;;;5.30;;
16304;SDS011;8261;47.678;-122.174;2022-07-03T12:43:13;6.97;;;5.67;;
16304;SDS011;8261;47.678;-122.174;2022-07-03T12:45:51;6.13;;;5.17;;
16304;SDS011;8261;47.678;-122.174;2022-07-03T12:48:23;6.80;;;6.17;;
16304;SDS011;8261;47.678;-122.174;2022-07-03T12:50:55;7.27;;;5.37;;
16304;SDS011;8261;47.678;-122.174;2022-07-03T12:53:29;7.07;;;5.13;;
16304;SDS011;8261;47.678;-122.174;2022-07-03T12:56:05;6.37;;;5.70;;
16304;SDS011;8261;47.678;-122.174;2022-07-03T12:58:41;6.33;;;5.40;;
16304;SDS011;8261;47.678;-122.174;2022-07-03T13:01:30;6.13;;;5.53;;
16304;SDS011;8261;47.678;-122.174;2022-07-03T13:04:08;7.43;;;5.37;;
16304;SDS011;8261;47.678;-122.174;2022-07-03T13:06:43;10.80;;;6.07;;
16304;SDS011;8261;47.678;-122.174;2022-07-03T13:09:39;5.33;;;4.83;;
16304;SDS011;8261;47.678;-122.174;2022-07-03T13:12:20;5.53;;;4.70;;
16304;SDS011;8261;47.678;-122.174;2022-07-03T13:14:57;7.37;;;5.00;;
16304;SDS011;8261;47.678;-122.174;2022-07-03T13:20:32;6.17;;;5.00;;
16304;SDS011;8261;47.678;-122.174;2022-07-03T13:23:04;6.57;;;4.50;;
16304;SDS011;8261;47.678;-122.174;2022-07-03T13:25:40;6.33;;;5.10;;
16304;SDS011;8261;47.678;-122.174;2022-07-03T13:28:13;9.27;;;5.63;;
16304;SDS011;8261;47.678;-122.174;2022-07-03T13:30:45;7.37;;;5.20;;
16304;SDS011;8261;47.678;-122.174;2022-07-03T13:33:17;8.50;;;5.27;;
16304;SDS011;8261;47.678;-122.174;2022-07-03T13:35:48;6.83;;;4.93;;
16304;SDS011;8261;47.678;-122.174;2022-07-03T13:38:21;7.27;;;4.70;;
16304;SDS011;8261;47.678;-122.174;2022-07-03T13:40:54;7.30;;;4.83;;
16304;SDS011;8261;47.678;-122.174;2022-07-03T13:43:26;6.33;;;5.17;;
16304;SDS011;8261;47.678;-122.174;2022-07-03T13:45:57;5.67;;;4.73;;
16304;SDS011;8261;47.678;-122.174;2022-07-03T13:48:30;5.70;;;5.10;;
16304;SDS011;8261;47.678;-122.174;2022-07-03T13:51:03;5.37;;;4.57;;
16304;SDS011;8261;47.678;-122.174;2022-07-03T13:53:35;4.87;;;4.23;;
16304;SDS011;8261;47.678;-122.174;2022-07-03T13:56:09;5.23;;;4.73;;
16304;SDS011;8261;47.678;-122.174;2022-07-03T13:58:40;5.73;;;4.47;;
16304;SDS011;8261;47.678;-122.174;2022-07-03T14:01:18;5.57;;;4.97;;
16304;SDS011;8261;47.678;-122.174;2022-07-03T14:03:53;5.70;;;4.93;;
16304;SDS011;8261;47.678;-122.174;2022-07-03T14:06:25;8.03;;;4.87;;
16304;SDS011;8261;47.678;-122.174;2022-07-03T14:08:58;5.33;;;4.60;;
16304;SDS011;8261;47.678;-122.174;2022-07-03T14:11:36;5.53;;;4.93;;
16304;SDS011;8261;47.678;-122.174;2022-07-03T14:14:07;7.87;;;5.17;;
16304;SDS011;8261;47.678;-122.174;2022-07-03T14:16:39;5.93;;;4.80;;
16304;SDS011;8261;47.678;-122.174;2022-07-03T14:19:17;6.00;;;4.83;;
16304;SDS011;8261;47.678;-122.174;2022-07-03T14:21:48;4.97;;;4.23;;
16304;SDS011;8261;47.678;-122.174;2022-07-03T14:24:20;6.33;;;5.20;;
16304;SDS011;8261;47.678;-122.174;2022-07-03T14:26:55;5.57;;;4.87;;
16304;SDS011;8261;47.678;-122.174;2022-07-03T14:29:44;8.40;;;5.60;;
16304;SDS011;8261;47.678;-122.174;2022-07-03T14:32:32;7.73;;;5.97;;
16304;SDS011;8261;47.678;-122.174;2022-07-03T14:35:12;6.93;;;5.97;;
16304;SDS011;8261;47.678;-122.174;2022-07-03T14:37:43;7.47;;;6.50;;
16304;SDS011;8261;47.678;-122.174;2022-07-03T14:40:15;8.73;;;5.93;;
16304;SDS011;8261;47.678;-122.174;2022-07-03T14:42:59;7.93;;;5.97;;
16304;SDS011;8261;47.678;-122.174;2022-07-03T14:45:31;7.43;;;4.97;;
16304;SDS011;8261;47.678;-122.174;2022-07-03T14:48:08;5.17;;;4.67;;
16304;SDS011;8261;47.678;-122.174;2022-07-03T14:50:44;6.47;;;5.00;;
16304;SDS011;8261;47.678;-122.174;2022-07-03T14:53:18;5.80;;;4.87;;
16304;SDS011;8261;47.678;-122.174;2022-07-03T14:55:51;5.93;;;5.17;;
16304;SDS011;8261;47.678;-122.174;2022-07-03T14:58:28;7.40;;;5.13;;
16304;SDS011;8261;47.678;-122.174;2022-07-03T15:01:06;6.03;;;5.20;;
16304;SDS011;8261;47.678;-122.174;2022-07-03T15:03:45;5.80;;;5.17;;
16304;SDS011;8261;47.678;-122.174;2022-07-03T15:06:26;5.73;;;5.13;;
16304;SDS011;8261;47.678;-122.174;2022-07-03T15:09:00;8.00;;;5.50;;
16304;SDS011;8261;47.678;-122.174;2022-07-03T15:11:38;7.07;;;5.40;;
16304;SDS011;8261;47.678;-122.174;2022-07-03T15:14:39;5.67;;;4.90;;
16304;SDS011;8261;47.678;-122.174;2022-07-03T15:17:14;6.63;;;5.60;;
16304;SDS011;8261;47.678;-122.174;2022-07-03T15:19:47;6.03;;;5.43;;
16304;SDS011;8261;47.678;-122.174;2022-07-03T15:22:21;8.27;;;6.10;;
16304;SDS011;8261;47.678;-122.174;2022-07-03T15:24:55;5.33;;;4.47;;
16304;SDS011;8261;47.678;-122.174;2022-07-03T15:27:29;5.83;;;5.23;;
16304;SDS011;8261;47.678;-122.174;2022-07-03T15:30:04;5.23;;;4.73;;
16304;SDS011;8261;47.678;-122.174;2022-07-03T15:32:37;6.20;;;5.60;;
16304;SDS011;8261;47.678;-122.174;2022-07-03T15:35:14;6.40;;;5.80;;
16304;SDS011;8261;47.678;-122.174;2022-07-03T15:40:57;6.13;;;5.53;;
16304;SDS011;8261;47.678;-122.174;2022-07-03T15:43:36;6.53;;;5.80;;
16304;SDS011;8261;47.678;-122.174;2022-07-03T15:49:22;5.50;;;4.83;;
16304;SDS011;8261;47.678;-122.174;2022-07-03T15:52:06;6.37;;;5.10;;
16304;SDS011;8261;47.678;-122.174;2022-07-03T15:54:50;7.30;;;5.33;;
16304;SDS011;8261;47.678;-122.174;2022-07-03T15:57:29;6.60;;;5.17;;
16304;SDS011;8261;47.678;-122.174;2022-07-03T16:00:09;5.60;;;4.80;;
16304;SDS011;8261;47.678;-122.174;2022-07-03T16:05:41;7.47;;;4.97;;
16304;SDS011;8261;47.678;-122.174;2022-07-03T16:08:16;6.13;;;5.53;;
16304;SDS011;8261;47.678;-122.174;2022-07-03T16:10:49;6.53;;;5.53;;
16304;SDS011;8261;47.678;-122.174;2022-07-03T16:13:24;7.13;;;6.10;;
16304;SDS011;8261;47.678;-122.174;2022-07-03T16:15:57;6.67;;;5.93;;
16304;SDS011;8261;47.678;-122.174;2022-07-03T16:18:31;7.03;;;6.33;;
16304;SDS011;8261;47.678;-122.174;2022-07-03T16:21:05;9.17;;;6.77;;
16304;SDS011;8261;47.678;-122.174;2022-07-03T16:23:59;7.37;;;6.53;;
16304;SDS011;8261;47.678;-122.174;2022-07-03T16:26:35;7.63;;;6.83;;
16304;SDS011;8261;47.678;-122.174;2022-07-03T16:29:07;7.27;;;6.50;;
16304;SDS011;8261;47.678;-122.174;2022-07-03T16:31:39;6.77;;;5.90;;
16304;SDS011;8261;47.678;-122.174;2022-07-03T16:34:15;8.57;;;6.30;;
16304;SDS011;8261;47.678;-122.174;2022-07-03T16:36:54;7.57;;;6.47;;
16304;SDS011;8261;47.678;-122.174;2022-07-03T16:39:30;7.90;;;6.70;;
16304;SDS011;8261;47.678;-122.174;2022-07-03T16:42:05;9.73;;;6.93;;
16304;SDS011;8261;47.678;-122.174;2022-07-03T16:44:40;9.53;;;6.60;;
16304;SDS011;8261;47.678;-122.174;2022-07-03T16:47:15;8.50;;;6.80;;
16304;SDS011;8261;47.678;-122.174;2022-07-03T16:49:52;8.90;;;7.20;;
16304;SDS011;8261;47.678;-122.174;2022-07-03T16:52:27;7.53;;;6.60;;
16304;SDS011;8261;47.678;-122.174;2022-07-03T16:55:00;9.17;;;6.77;;
16304;SDS011;8261;47.678;-122.174;2022-07-03T16:57:36;7.77;;;6.90;;
16304;SDS011;8261;47.678;-122.174;2022-07-03T17:00:13;6.97;;;5.97;;
16304;SDS011;8261;47.678;-122.174;2022-07-03T17:02:47;8.67;;;6.73;;
16304;SDS011;8261;47.678;-122.174;2022-07-03T17:05:23;7.30;;;6.40;;
16304;SDS011;8261;47.678;-122.174;2022-07-03T17:07:55;8.47;;;6.30;;
16304;SDS011;8261;47.678;-122.174;2022-07-03T17:10:34;8.60;;;6.60;;
16304;SDS011;8261;47.678;-122.174;2022-07-03T17:13:07;8.57;;;6.93;;
16304;SDS011;8261;47.678;-122.174;2022-07-03T17:15:56;9.30;;;6.63;;
16304;SDS011;8261;47.678;-122.174;2022-07-03T17:18:36;8.43;;;6.93;;
16304;SDS011;8261;47.678;-122.174;2022-07-03T17:21:22;8.37;;;6.53;;
16304;SDS011;8261;47.678;-122.174;2022-07-03T17:23:57;8.63;;;7.43;;
16304;SDS011;8261;47.678;-122.174;2022-07-03T17:26:31;7.43;;;6.40;;
16304;SDS011;8261;47.678;-122.174;2022-07-03T17:29:04;8.03;;;5.97;;
16304;SDS011;8261;47.678;-122.174;2022-07-03T17:31:38;10.70;;;6.50;;
16304;SDS011;8261;47.678;-122.174;2022-07-03T17:34:13;7.53;;;6.43;;
16304;SDS011;8261;47.678;-122.174;2022-07-03T17:36:49;8.67;;;7.37;;
16304;SDS011;8261;47.678;-122.174;2022-07-03T17:39:21;11.07;;;7.27;;
16304;SDS011;8261;47.678;-122.174;2022-07-03T17:41:54;7.93;;;6.53;;
16304;SDS011;8261;47.678;-122.174;2022-07-03T17:44:32;10.00;;;6.63;;
16304;SDS011;8261;47.678;-122.174;2022-07-03T17:47:05;7.73;;;6.50;;
16304;SDS011;8261;47.678;-122.174;2022-07-03T17:49:41;9.40;;;6.60;;
16304;SDS011;8261;47.678;-122.174;2022-07-03T17:52:20;7.30;;;6.60;;
16304;SDS011;8261;47.678;-122.174;2022-07-03T17:54:54;7.00;;;6.30;;
16304;SDS011;8261;47.678;-122.174;2022-07-03T17:57:30;10.23;;;7.77;;